createdAt,value
2019-03-03T00:00:50.537Z,4.8
2019-03-03T00:01:50.571Z,4.8
2019-03-03T00:02:50.572Z,4.7
2019-03-03T00:03:50.600Z,4.8
2019-03-03T00:04:50.586Z,4.9
2019-03-03T00:05:50.595Z,4.8
2019-03-03T00:06:50.608Z,4.8
2019-03-03T00:07:50.663Z,4.9
2019-03-03T00:08:50.656Z,4.9
2019-03-03T00:09:50.701Z,4.9
2019-03-03T00:10:50.684Z,4.9
2019-03-03T00:11:50.732Z,4.9
2019-03-03T00:12:50.735Z,4.9
2019-03-03T00:13:50.730Z,4.9
2019-03-03T00:14:50.731Z,4.9
2019-03-03T00:15:53.017Z,5
2019-03-03T00:16:50.777Z,5
2019-03-03T00:17:50.816Z,5
2019-03-03T00:18:50.769Z,5
2019-03-03T00:19:50.810Z,5.1
2019-03-03T00:20:50.805Z,5
2019-03-03T00:21:50.800Z,5
2019-03-03T00:22:50.799Z,5.1
2019-03-03T00:23:50.846Z,5.1
2019-03-03T00:24:50.875Z,5.1
2019-03-03T00:25:50.825Z,5.1
2019-03-03T00:26:50.845Z,5.2
2019-03-03T00:27:50.841Z,5.3
2019-03-03T00:28:50.866Z,5.3
2019-03-03T00:29:50.961Z,5.3
2019-03-03T00:30:50.858Z,5.3
2019-03-03T00:31:50.861Z,5.3
2019-03-03T00:32:50.897Z,5.3
2019-03-03T00:33:50.873Z,5.3
2019-03-03T00:34:50.858Z,5.3
2019-03-03T00:35:50.856Z,5.3
2019-03-03T00:37:50.938Z,5.4
2019-03-03T00:38:50.920Z,5.4
2019-03-03T00:39:51.008Z,5.4
2019-03-03T00:40:50.912Z,5.4
2019-03-03T00:41:50.954Z,5.4
2019-03-03T00:42:50.971Z,5.4
2019-03-03T00:43:51.009Z,5.5
2019-03-03T00:44:51.026Z,5.5
2019-03-03T00:45:51.100Z,5.6
2019-03-03T00:46:51.124Z,5.4
2019-03-03T00:47:53.430Z,5.5
2019-03-03T00:48:51.242Z,5.6
2019-03-03T00:49:51.253Z,5.5
2019-03-03T00:50:51.337Z,5.6
2019-03-03T00:51:51.298Z,5.7
2019-03-03T00:52:51.372Z,5.6
2019-03-03T00:53:51.383Z,5.6
2019-03-03T00:54:51.396Z,5.7
2019-03-03T00:55:51.455Z,5.6
2019-03-03T00:56:51.481Z,5.7
2019-03-03T00:57:51.497Z,5.7
2019-03-03T00:58:51.528Z,5.7
2019-03-03T00:59:51.554Z,5.7
2019-03-03T01:00:51.598Z,5.7
2019-03-03T01:01:51.635Z,5.8
2019-03-03T01:02:51.662Z,5.8
2019-03-03T01:03:51.706Z,5.8
2019-03-03T01:04:51.769Z,5.8
2019-03-03T01:05:51.779Z,5.9
2019-03-03T01:06:51.825Z,5.8
2019-03-03T01:07:51.847Z,5.7
2019-03-03T01:08:51.934Z,5.8
2019-03-03T01:09:51.890Z,5.8
2019-03-03T01:10:51.918Z,5.8
2019-03-03T01:11:51.952Z,5.9
2019-03-03T01:12:52.984Z,5.9
2019-03-03T01:13:51.968Z,5.8
2019-03-03T01:14:52.040Z,5.8
2019-03-03T01:15:52.058Z,5.9
2019-03-03T01:16:52.139Z,5.9
2019-03-03T01:17:52.107Z,5.9
2019-03-03T01:18:52.091Z,5.9
2019-03-03T01:19:52.118Z,5.9
2019-03-03T01:20:52.153Z,6
2019-03-03T01:21:52.171Z,6
2019-03-03T01:22:52.181Z,6
2019-03-03T01:23:52.226Z,6
2019-03-03T01:24:52.225Z,6
2019-03-03T01:25:52.268Z,6
2019-03-03T01:26:52.264Z,6
2019-03-03T01:27:52.334Z,6
2019-03-03T01:28:52.333Z,6
2019-03-03T01:29:52.346Z,6
2019-03-03T01:30:52.376Z,5.9
2019-03-03T01:31:52.376Z,6
2019-03-03T01:32:52.383Z,6
2019-03-03T01:33:52.436Z,6.1
2019-03-03T01:34:53.467Z,6
2019-03-03T01:35:52.475Z,6.1
2019-03-03T01:36:52.484Z,6
2019-03-03T01:37:52.471Z,6.1
2019-03-03T01:38:52.488Z,6.1
2019-03-03T01:39:52.519Z,6.2
2019-03-03T01:40:52.546Z,6.2
2019-03-03T01:41:52.559Z,6.3
2019-03-03T01:42:52.535Z,6.4
2019-03-03T01:43:52.545Z,6.5
2019-03-03T01:44:52.590Z,6.6
2019-03-03T01:45:52.573Z,6.6
2019-03-03T01:46:52.591Z,6.7
2019-03-03T01:47:52.577Z,6.8
2019-03-03T01:48:52.621Z,6.8
2019-03-03T01:49:52.616Z,6.9
2019-03-03T01:50:52.645Z,6.9
2019-03-03T01:51:52.634Z,7
2019-03-03T01:52:52.640Z,7
2019-03-03T01:53:52.633Z,7
2019-03-03T01:54:52.655Z,7
2019-03-03T01:55:52.633Z,7.1
2019-03-03T01:56:52.627Z,7.2
2019-03-03T01:57:52.649Z,7.2
2019-03-03T01:58:52.658Z,7.2
2019-03-03T01:59:52.651Z,7.3
2019-03-03T02:00:52.668Z,7.3
2019-03-03T02:01:52.653Z,7.3
2019-03-03T02:02:52.682Z,7.3
2019-03-03T02:03:52.703Z,7.3
2019-03-03T02:04:52.776Z,7.3
2019-03-03T02:05:52.765Z,7.3
2019-03-03T02:06:52.787Z,7.3
2019-03-03T02:07:52.832Z,7.3
2019-03-03T02:08:52.888Z,7.3
2019-03-03T02:09:52.885Z,7.3
2019-03-03T02:10:52.933Z,7.4
2019-03-03T02:11:52.989Z,7.2
2019-03-03T02:12:53.041Z,7.3
2019-03-03T02:13:53.055Z,7.3
2019-03-03T02:14:53.099Z,7.3
2019-03-03T02:15:53.124Z,7.3
2019-03-03T02:16:53.186Z,7.3
2019-03-03T02:17:53.140Z,7.3
2019-03-03T02:18:53.248Z,7.4
2019-03-03T02:19:53.266Z,7.4
2019-03-03T02:20:53.288Z,7.4
2019-03-03T02:21:53.330Z,7.4
2019-03-03T02:22:53.315Z,7.5
2019-03-03T02:23:53.366Z,7.5
2019-03-03T02:24:53.380Z,7.6
2019-03-03T02:25:53.428Z,7.6
2019-03-03T02:26:53.462Z,7.6
2019-03-03T02:27:53.478Z,7.6
2019-03-03T02:28:53.531Z,7.6
2019-03-03T02:29:53.618Z,7.6
2019-03-03T02:30:53.632Z,7.6
2019-03-03T02:31:53.603Z,7.6
2019-03-03T02:32:53.669Z,7.6
2019-03-03T02:33:53.661Z,7.6
2019-03-03T02:34:53.686Z,7.6
2019-03-03T02:35:53.692Z,7.6
2019-03-03T02:36:53.742Z,7.6
2019-03-03T02:37:56.235Z,7.6
2019-03-03T02:38:53.772Z,7.6
2019-03-03T02:39:53.830Z,7.6
2019-03-03T02:40:53.830Z,7.6
2019-03-03T02:41:53.875Z,7.6
2019-03-03T02:42:53.888Z,7.5
2019-03-03T02:43:53.904Z,7.4
2019-03-03T02:44:53.938Z,7.4
2019-03-03T02:45:53.961Z,7.4
2019-03-03T02:46:53.952Z,7.3
2019-03-03T02:47:54.017Z,7.3
2019-03-03T02:48:54.017Z,7.3
2019-03-03T02:49:54.066Z,7.3
2019-03-03T02:50:54.076Z,7.3
2019-03-03T02:51:54.082Z,7.4
2019-03-03T02:52:54.127Z,7.4
2019-03-03T02:53:54.132Z,7.3
2019-03-03T02:54:54.194Z,7.4
2019-03-03T02:55:54.194Z,7.2
2019-03-03T02:56:54.213Z,7.2
2019-03-03T02:57:54.235Z,7.2
2019-03-03T02:58:54.259Z,7.2
2019-03-03T02:59:54.301Z,7.2
2019-03-03T03:00:54.331Z,7.2
2019-03-03T03:01:54.346Z,7.3
2019-03-03T03:02:54.346Z,7.2
2019-03-03T03:03:54.341Z,7.2
2019-03-03T03:04:54.367Z,7.2
2019-03-03T03:05:54.449Z,7.2
2019-03-03T03:06:54.385Z,7.1
2019-03-03T03:07:54.401Z,7.2
2019-03-03T03:08:54.424Z,7
2019-03-03T03:09:54.463Z,7.1
2019-03-03T03:10:54.485Z,7.1
2019-03-03T03:11:54.461Z,7.1
2019-03-03T03:12:54.504Z,7.1
2019-03-03T03:13:54.497Z,7.1
2019-03-03T03:14:54.486Z,7.1
2019-03-03T03:15:54.499Z,7.1
2019-03-03T03:16:54.517Z,7.2
2019-03-03T03:17:54.512Z,7.1
2019-03-03T03:18:54.517Z,7.1
2019-03-03T03:19:54.535Z,7.1
2019-03-03T03:20:54.562Z,7.1
2019-03-03T03:21:54.549Z,7.1
2019-03-03T03:22:54.596Z,7.1
2019-03-03T03:23:54.569Z,7.1
2019-03-03T03:24:54.584Z,7.1
2019-03-03T03:25:54.582Z,7
2019-03-03T03:26:54.639Z,7
2019-03-03T03:27:54.633Z,7
2019-03-03T03:28:54.630Z,7
2019-03-03T03:29:54.633Z,6.9
2019-03-03T03:30:54.618Z,6.9
2019-03-03T03:31:54.792Z,6.9
2019-03-03T03:32:54.655Z,6.7
2019-03-03T03:33:54.635Z,6.9
2019-03-03T03:34:54.708Z,6.8
2019-03-03T03:35:54.630Z,6.8
2019-03-03T03:36:54.642Z,6.8
2019-03-03T03:37:54.686Z,6.8
2019-03-03T03:38:54.636Z,6.8
2019-03-03T03:39:54.712Z,6.8
2019-03-03T03:40:54.712Z,6.8
2019-03-03T03:41:54.681Z,6.8
2019-03-03T03:42:54.747Z,6.8
2019-03-03T03:43:54.715Z,6.8
2019-03-03T03:44:54.699Z,6.8
2019-03-03T03:45:54.665Z,6.8
2019-03-03T03:46:54.693Z,6.8
2019-03-03T03:47:54.697Z,6.8
2019-03-03T03:48:54.695Z,6.8
2019-03-03T03:49:54.778Z,6.8
2019-03-03T03:50:54.739Z,6.7
2019-03-03T03:51:55.241Z,6.7
2019-03-03T03:52:54.734Z,6.6
2019-03-03T03:53:54.731Z,6.6
2019-03-03T03:54:54.772Z,6.6
2019-03-03T03:55:54.797Z,6.5
2019-03-03T03:56:54.836Z,6.5
2019-03-03T03:57:54.875Z,6.4
2019-03-03T03:58:54.882Z,6.5
2019-03-03T03:59:54.973Z,6.5
2019-03-03T04:00:54.991Z,6.5
2019-03-03T04:01:55.007Z,6.4
2019-03-03T04:02:55.019Z,6.4
2019-03-03T04:03:55.056Z,6.4
2019-03-03T04:04:55.100Z,6.4
2019-03-03T04:05:55.099Z,6.4
2019-03-03T04:06:55.110Z,6.4
2019-03-03T04:07:55.211Z,6.4
2019-03-03T04:08:55.205Z,6.4
2019-03-03T04:09:55.269Z,6.4
2019-03-03T04:10:55.229Z,6.4
2019-03-03T04:11:55.289Z,6.4
2019-03-03T04:12:55.265Z,6.4
2019-03-03T04:13:55.343Z,6.3
2019-03-03T04:14:55.338Z,6.4
2019-03-03T04:15:55.344Z,6.4
2019-03-03T04:16:55.374Z,6.4
2019-03-03T04:17:55.383Z,6.3
2019-03-03T04:18:55.411Z,6.3
2019-03-03T04:19:55.437Z,6.3
2019-03-03T04:20:55.470Z,6.3
2019-03-03T04:21:55.482Z,6.3
2019-03-03T04:22:55.515Z,6.3
2019-03-03T04:23:55.500Z,6.2
2019-03-03T04:24:55.503Z,6.3
2019-03-03T04:25:55.522Z,6.2
2019-03-03T04:26:55.531Z,6.2
2019-03-03T04:27:55.546Z,6.2
2019-03-03T04:28:55.587Z,6.2
2019-03-03T04:29:55.587Z,6.2
2019-03-03T04:30:55.620Z,6.2
2019-03-03T04:31:55.627Z,6.1
2019-03-03T04:32:55.644Z,6.1
2019-03-03T04:33:55.653Z,6.1
2019-03-03T04:34:55.640Z,6.3
2019-03-03T04:35:55.702Z,6.1
2019-03-03T04:36:55.660Z,6
2019-03-03T04:37:55.680Z,6
2019-03-03T04:38:55.725Z,5.9
2019-03-03T04:39:55.713Z,5.8
2019-03-03T04:40:55.719Z,5.7
2019-03-03T04:41:55.706Z,5.8
2019-03-03T04:42:55.725Z,5.9
2019-03-03T04:43:55.912Z,5.8
2019-03-03T04:44:55.738Z,5.7
2019-03-03T04:45:55.797Z,5.7
2019-03-03T04:46:55.762Z,5.7
2019-03-03T04:47:55.748Z,5.7
2019-03-03T04:48:55.766Z,5.6
2019-03-03T04:49:55.785Z,5.7
2019-03-03T04:50:55.769Z,5.6
2019-03-03T04:51:55.794Z,5.5
2019-03-03T04:52:55.830Z,5.4
2019-03-03T04:53:55.794Z,5.6
2019-03-03T04:54:55.820Z,5.5
2019-03-03T04:55:55.794Z,5.4
2019-03-03T04:56:55.824Z,5.4
2019-03-03T04:57:55.797Z,5.5
2019-03-03T04:58:55.796Z,5.5
2019-03-03T04:59:55.862Z,5.4
2019-03-03T05:00:55.820Z,5.6
2019-03-03T05:01:55.861Z,5.5
2019-03-03T05:02:55.912Z,5.4
2019-03-03T05:03:55.897Z,5.4
2019-03-03T05:04:55.970Z,5.4
2019-03-03T05:05:56.010Z,5.4
2019-03-03T05:06:56.042Z,5.4
2019-03-03T05:07:56.100Z,5.3
2019-03-03T05:08:56.084Z,5.2
2019-03-03T05:09:56.128Z,5.3
2019-03-03T05:10:56.133Z,5.3
2019-03-03T05:11:56.215Z,5.2
2019-03-03T05:12:56.207Z,5.2
2019-03-03T05:13:56.258Z,5.2
2019-03-03T05:14:56.302Z,5.1
2019-03-03T05:15:56.453Z,5
2019-03-03T05:16:56.394Z,5
2019-03-03T05:17:56.435Z,5
2019-03-03T05:18:56.460Z,5
2019-03-03T05:19:56.472Z,4.9
2019-03-03T05:20:56.494Z,4.9
2019-03-03T05:22:28.815Z,4.9
2019-03-03T05:22:56.653Z,4.8
2019-03-03T05:23:56.591Z,4.8
2019-03-03T05:24:56.643Z,4.7
2019-03-03T05:25:56.652Z,4.6
2019-03-03T05:26:56.707Z,4.5
2019-03-03T05:27:56.729Z,4.5
2019-03-03T05:28:56.759Z,4.6
2019-03-03T05:29:56.761Z,4.7
2019-03-03T05:30:56.769Z,4.6
2019-03-03T05:31:56.811Z,4.6
2019-03-03T05:32:56.842Z,4.5
2019-03-03T05:33:56.852Z,4.5
2019-03-03T05:34:56.884Z,4.6
2019-03-03T05:35:56.889Z,4.5
2019-03-03T05:36:56.945Z,4.5
2019-03-03T05:37:56.892Z,4.5
2019-03-03T05:38:56.959Z,4.5
2019-03-03T05:39:56.990Z,4.5
2019-03-03T05:40:57.042Z,4.4
2019-03-03T05:41:57.015Z,4.4
2019-03-03T05:42:57.033Z,4.4
2019-03-03T05:43:57.044Z,4.4
2019-03-03T05:44:57.068Z,4.5
2019-03-03T05:45:57.100Z,4.6
2019-03-03T05:46:57.126Z,4.5
2019-03-03T05:47:57.192Z,4.3
2019-03-03T05:48:57.211Z,4.3
2019-03-03T05:49:57.191Z,4.3
2019-03-03T05:50:57.212Z,4.2
2019-03-03T05:51:57.225Z,4.2
2019-03-03T05:52:57.831Z,4.2
2019-03-03T05:53:57.304Z,4.1
2019-03-03T05:54:57.288Z,4.1
2019-03-03T05:55:57.336Z,4.1
2019-03-03T05:56:57.341Z,4.1
2019-03-03T05:57:57.345Z,4.2
2019-03-03T05:58:57.623Z,4.1
2019-03-03T05:59:57.375Z,4
2019-03-03T06:00:57.357Z,3.9
2019-03-03T06:01:57.390Z,4
2019-03-03T06:02:57.418Z,4
2019-03-03T06:03:57.444Z,4
2019-03-03T06:04:57.448Z,3.9
2019-03-03T06:05:57.421Z,4
2019-03-03T06:06:57.451Z,4
2019-03-03T06:07:57.524Z,4.1
2019-03-03T06:08:57.444Z,3.9
2019-03-03T06:09:57.474Z,4
2019-03-03T06:10:57.453Z,4
2019-03-03T06:11:57.474Z,3.9
2019-03-03T06:12:57.485Z,4
2019-03-03T06:13:57.492Z,4.1
2019-03-03T06:14:57.505Z,4
2019-03-03T06:15:57.531Z,4
2019-03-03T06:16:57.520Z,3.9
2019-03-03T06:17:57.514Z,3.8
2019-03-03T06:18:57.495Z,3.8
2019-03-03T06:19:57.488Z,3.8
2019-03-03T06:20:57.532Z,3.8
2019-03-03T06:21:57.564Z,3.8
2019-03-03T06:22:57.647Z,3.7
2019-03-03T06:23:57.717Z,3.8
2019-03-03T06:24:57.769Z,3.8
2019-03-03T06:25:57.839Z,3.8
2019-03-03T06:26:57.806Z,3.9
2019-03-03T06:27:57.845Z,3.8
2019-03-03T06:28:57.854Z,3.9
2019-03-03T06:29:57.872Z,3.9
2019-03-03T06:30:57.964Z,4.1
2019-03-03T06:31:57.931Z,4
2019-03-03T06:32:57.981Z,4.4
2019-03-03T06:33:58.043Z,4.2
2019-03-03T06:34:58.035Z,4.2
2019-03-03T06:35:58.054Z,4.3
2019-03-03T06:36:58.086Z,4.2
2019-03-03T06:37:58.167Z,4.3
2019-03-03T06:38:58.200Z,4.3
2019-03-03T06:39:58.184Z,4.2
2019-03-03T06:40:58.259Z,4.1
2019-03-03T06:41:58.290Z,4
2019-03-03T06:42:58.309Z,4
2019-03-03T06:43:58.486Z,4
2019-03-03T06:44:58.411Z,4
2019-03-03T06:45:58.441Z,4
2019-03-03T06:46:58.432Z,3.9
2019-03-03T06:47:58.458Z,4
2019-03-03T06:48:58.526Z,4
2019-03-03T06:49:58.564Z,4
2019-03-03T06:50:58.560Z,4
2019-03-03T06:51:58.584Z,4.2
2019-03-03T06:52:58.632Z,4.1
2019-03-03T06:53:58.634Z,4.2
2019-03-03T06:54:58.678Z,4.2
2019-03-03T06:55:58.746Z,4.1
2019-03-03T06:56:58.759Z,4.2
2019-03-03T06:57:58.735Z,4.2
2019-03-03T06:58:58.766Z,4.3
2019-03-03T06:59:58.838Z,4.1
2019-03-03T07:00:58.887Z,4.1
2019-03-03T07:01:58.869Z,4.2
2019-03-03T07:02:58.895Z,4.2
2019-03-03T07:03:58.905Z,4.2
2019-03-03T07:04:58.929Z,4.1
2019-03-03T07:05:58.951Z,4.3
2019-03-03T07:06:59.005Z,4.3
2019-03-03T07:07:59.020Z,4.3
2019-03-03T07:08:59.018Z,4.3
2019-03-03T07:09:59.043Z,4.2
2019-03-03T07:10:59.064Z,4.2
2019-03-03T07:11:59.141Z,4.2
2019-03-03T07:12:59.119Z,4.4
2019-03-03T07:13:59.151Z,4.4
2019-03-03T07:14:59.183Z,4.5
2019-03-03T07:15:59.207Z,4.5
2019-03-03T07:16:59.233Z,4.6
2019-03-03T07:17:59.237Z,4.5
2019-03-03T07:18:59.306Z,4.4
2019-03-03T07:19:59.361Z,4.6
2019-03-03T07:20:59.340Z,4.7
2019-03-03T07:21:59.345Z,4.6
2019-03-03T07:22:59.361Z,4.7
2019-03-03T07:23:59.366Z,4.6
2019-03-03T07:24:59.391Z,4.7
2019-03-03T07:25:59.418Z,4.7
2019-03-03T07:26:59.427Z,4.7
2019-03-03T07:27:59.431Z,4.6
2019-03-03T07:28:59.491Z,4.8
2019-03-03T07:29:59.441Z,4.9
2019-03-03T07:30:59.506Z,4.7
2019-03-03T07:31:59.500Z,4.6
2019-03-03T07:32:59.518Z,4.7
2019-03-03T07:33:59.511Z,4.9
2019-03-03T07:34:59.507Z,4.6
2019-03-03T07:35:59.537Z,4.6
2019-03-03T07:36:59.550Z,4.6
2019-03-03T07:37:59.558Z,4.6
2019-03-03T07:38:59.598Z,4.6
2019-03-03T07:39:59.601Z,4.6
2019-03-03T07:40:59.650Z,4.6
2019-03-03T07:41:59.645Z,4.7
2019-03-03T07:42:59.614Z,4.6
2019-03-03T07:43:59.636Z,4.6
2019-03-03T07:44:59.604Z,4.6
2019-03-03T07:46:02.098Z,4.5
2019-03-03T07:46:59.753Z,4.4
2019-03-03T07:47:59.716Z,4.5
2019-03-03T07:48:59.662Z,4.4
2019-03-03T07:49:59.652Z,4.5
2019-03-03T07:50:59.775Z,4.5
2019-03-03T07:51:59.681Z,4.5
2019-03-03T07:52:59.689Z,4.6
2019-03-03T07:53:59.661Z,4.6
2019-03-03T07:54:59.687Z,4.3
2019-03-03T07:55:59.693Z,4.6
2019-03-03T07:56:59.673Z,4.5
2019-03-03T07:57:59.681Z,4.5
2019-03-03T07:58:59.716Z,4.5
2019-03-03T07:59:59.705Z,4.6
2019-03-03T08:00:59.720Z,4.5
2019-03-03T08:01:59.724Z,4.5
2019-03-03T08:02:59.781Z,4.5
2019-03-03T08:03:59.799Z,4.5
2019-03-03T08:04:59.748Z,4.4
2019-03-03T08:05:59.745Z,4.4
2019-03-03T08:06:59.801Z,4.6
2019-03-03T08:07:59.780Z,4.6
2019-03-03T08:08:59.892Z,4.6
2019-03-03T08:09:59.801Z,4.6
2019-03-03T08:10:59.797Z,4.5
2019-03-03T08:12:00.889Z,4.4
2019-03-03T08:13:08.870Z,4.6
2019-03-03T08:13:59.817Z,4.5
2019-03-03T08:14:59.850Z,4.7
2019-03-03T08:15:59.848Z,4.7
2019-03-03T08:16:59.865Z,4.8
2019-03-03T08:18:02.942Z,4.7
2019-03-03T08:18:59.881Z,4.7
2019-03-03T08:19:59.882Z,4.6
2019-03-03T08:20:59.917Z,4.7
2019-03-03T08:22:00.003Z,4.9
2019-03-03T08:22:59.933Z,4.7
2019-03-03T08:23:59.914Z,4.6
2019-03-03T08:24:59.912Z,4.6
2019-03-03T08:25:59.944Z,4.5
2019-03-03T08:26:59.940Z,4.5
2019-03-03T08:27:59.968Z,4.5
2019-03-03T08:28:59.940Z,4.6
2019-03-03T08:29:59.930Z,4.5
2019-03-03T08:30:59.905Z,4.4
2019-03-03T08:31:59.927Z,4.4
2019-03-03T08:32:59.942Z,4.4
2019-03-03T08:33:59.982Z,4.3
2019-03-03T08:35:00.012Z,4.5
2019-03-03T08:36:00.008Z,4.6
2019-03-03T08:37:00.304Z,4.7
2019-03-03T08:38:00.052Z,4.5
2019-03-03T08:39:00.042Z,4.6
2019-03-03T08:40:00.284Z,4.5
2019-03-03T08:41:00.078Z,4.6
2019-03-03T08:42:00.081Z,4.8
2019-03-03T08:43:00.140Z,4.7
2019-03-03T08:44:00.099Z,4.6
2019-03-03T08:45:00.254Z,4.5
2019-03-03T08:46:00.172Z,4.6
2019-03-03T08:47:00.137Z,4.7
2019-03-03T08:48:00.143Z,5
2019-03-03T08:49:00.181Z,4.8
2019-03-03T08:50:00.293Z,5.1
2019-03-03T08:51:00.189Z,4.7
2019-03-03T08:52:00.197Z,4.8
2019-03-03T08:53:00.221Z,4.8
2019-03-03T08:54:00.218Z,4.5
2019-03-03T08:55:00.452Z,4.7
2019-03-03T08:56:00.195Z,4.6
2019-03-03T08:57:00.204Z,4.5
2019-03-03T08:58:00.229Z,4.4
2019-03-03T08:59:00.270Z,4.7
2019-03-03T09:00:00.310Z,4.7
2019-03-03T09:01:01.329Z,4.7
2019-03-03T09:02:02.720Z,4.7
2019-03-03T09:03:00.231Z,4.8
2019-03-03T09:04:00.258Z,4.7
2019-03-03T09:05:00.329Z,4.8
2019-03-03T09:06:00.297Z,5
2019-03-03T09:07:00.260Z,4.9
2019-03-03T09:08:00.588Z,5.1
2019-03-03T09:09:00.354Z,4.7
2019-03-03T09:10:02.874Z,4.9
2019-03-03T09:11:00.390Z,4.8
2019-03-03T09:12:00.944Z,4.8
2019-03-03T09:13:00.458Z,4.7
2019-03-03T09:14:00.487Z,4.8
2019-03-03T09:15:00.517Z,4.9
2019-03-03T09:16:00.571Z,4.7
2019-03-03T09:17:00.566Z,4.6
2019-03-03T09:18:00.559Z,4.7
2019-03-03T09:19:00.613Z,5
2019-03-03T09:20:00.617Z,5
2019-03-03T09:21:00.652Z,5
2019-03-03T09:22:00.671Z,4.8
2019-03-03T09:23:01.766Z,4.9
2019-03-03T09:24:00.859Z,4.8
2019-03-03T09:25:00.838Z,4.7
2019-03-03T09:26:00.864Z,4.8
2019-03-03T09:27:01.417Z,5
2019-03-03T09:28:00.931Z,4.8
2019-03-03T09:29:00.957Z,5.1
2019-03-03T09:30:00.999Z,4.8
2019-03-03T09:31:00.979Z,4.9
2019-03-03T09:32:01.028Z,4.7
2019-03-03T09:33:01.027Z,4.6
2019-03-03T09:34:01.186Z,4.7
2019-03-03T09:35:01.120Z,4.9
2019-03-03T09:36:01.195Z,4.9
2019-03-03T09:37:01.205Z,4.9
2019-03-03T09:38:01.348Z,4.7
2019-03-03T09:39:01.279Z,4.7
2019-03-03T09:40:08.942Z,4.8
2019-03-03T09:41:01.373Z,4.7
2019-03-03T09:42:01.311Z,4.6
2019-03-03T09:43:01.445Z,4.6
2019-03-03T09:44:10.485Z,4.6
2019-03-03T09:45:01.387Z,4.4
2019-03-03T09:46:01.425Z,4.5
2019-03-03T09:47:02.505Z,4.4
2019-03-03T09:48:01.596Z,4.5
2019-03-03T09:49:02.485Z,4.6
2019-03-03T09:50:01.521Z,4.6
2019-03-03T09:51:01.565Z,4.7
2019-03-03T09:52:01.537Z,4.7
2019-03-03T09:53:01.569Z,4.6
2019-03-03T09:54:01.595Z,4.6
2019-03-03T09:55:01.616Z,4.5
2019-03-03T09:56:01.865Z,4.6
2019-03-03T09:57:01.622Z,4.4
2019-03-03T09:58:01.630Z,4.5
2019-03-03T09:59:01.671Z,4.5
2019-03-03T10:00:01.691Z,4.4
2019-03-03T10:01:01.701Z,4.4
2019-03-03T10:02:01.743Z,4.4
2019-03-03T10:03:01.738Z,4.5
2019-03-03T10:04:01.778Z,4.3
2019-03-03T10:05:01.768Z,4.4
2019-03-03T10:06:01.785Z,4.5
2019-03-03T10:07:01.971Z,4.4
2019-03-03T10:08:01.874Z,4.5
2019-03-03T10:09:01.828Z,4.5
2019-03-03T10:10:01.791Z,4.5
2019-03-03T10:11:01.810Z,4.5
2019-03-03T10:12:01.856Z,4.7
2019-03-03T10:13:01.943Z,4.6
2019-03-03T10:14:01.866Z,4.6
2019-03-03T10:15:01.868Z,4.4
2019-03-03T10:16:01.881Z,4.4
2019-03-03T10:17:01.868Z,4.5
2019-03-03T10:18:04.985Z,4.4
2019-03-03T10:19:07.069Z,4.4
2019-03-03T10:20:01.875Z,4.5
2019-03-03T10:21:03.217Z,4.4
2019-03-03T10:22:01.880Z,4.5
2019-03-03T10:23:01.878Z,4.6
2019-03-03T10:24:01.891Z,4.5
2019-03-03T10:25:01.922Z,4.5
2019-03-03T10:26:01.925Z,4.7
2019-03-03T10:27:01.987Z,4.7
2019-03-03T10:28:02.024Z,4.7
2019-03-03T10:29:02.194Z,4.6
2019-03-03T10:30:02.051Z,4.5
2019-03-03T10:31:02.107Z,4.3
2019-03-03T10:32:02.130Z,4.3
2019-03-03T10:33:02.172Z,4.3
2019-03-03T10:34:02.233Z,4.5
2019-03-03T10:35:02.248Z,4.5
2019-03-03T10:36:02.251Z,4.6
2019-03-03T10:37:02.316Z,4.7
2019-03-03T10:38:02.378Z,4.6
2019-03-03T10:39:02.535Z,4.6
2019-03-03T10:40:02.440Z,4.8
2019-03-03T10:41:02.489Z,4.6
2019-03-03T10:42:02.557Z,4.8
2019-03-03T10:43:02.560Z,4.9
2019-03-03T10:44:02.588Z,4.8
2019-03-03T10:45:02.616Z,4.5
2019-03-03T10:46:02.634Z,4.6
2019-03-03T10:47:02.659Z,4.5
2019-03-03T10:48:02.686Z,4.5
2019-03-03T10:49:02.733Z,4.5
2019-03-03T10:50:02.740Z,4.5
2019-03-03T10:51:02.774Z,4.5
2019-03-03T10:52:02.870Z,4.5
2019-03-03T10:53:02.843Z,4.6
2019-03-03T10:54:02.872Z,4.6
2019-03-03T10:55:02.976Z,4.6
2019-03-03T10:56:02.931Z,4.5
2019-03-03T10:57:02.992Z,4.3
2019-03-03T10:58:03.101Z,4.5
2019-03-03T10:59:03.060Z,4.5
2019-03-03T11:00:03.381Z,4.3
2019-03-03T11:01:03.152Z,4.4
2019-03-03T11:02:03.129Z,4.4
2019-03-03T11:03:03.162Z,4.4
2019-03-03T11:04:03.205Z,4.6
2019-03-03T11:05:03.218Z,4.6
2019-03-03T11:06:03.489Z,4.5
2019-03-03T11:07:04.302Z,4.5
2019-03-03T11:08:03.283Z,4.5
2019-03-03T11:09:03.316Z,4.5
2019-03-03T11:10:03.335Z,4.6
2019-03-03T11:11:03.359Z,4.5
2019-03-03T11:12:03.431Z,4.7
2019-03-03T11:13:03.417Z,4.7
2019-03-03T11:14:03.506Z,4.6
2019-03-03T11:15:03.487Z,4.5
2019-03-03T11:16:03.466Z,4.5
2019-03-03T11:17:03.488Z,4.5
2019-03-03T11:18:03.544Z,4.8
2019-03-03T11:19:03.549Z,4.9
2019-03-03T11:20:03.590Z,4.7
2019-03-03T11:21:03.612Z,4.6
2019-03-03T11:22:03.585Z,4.6
2019-03-03T11:23:03.651Z,4.4
2019-03-03T11:24:03.675Z,4.8
2019-03-03T11:25:03.675Z,4.4
2019-03-03T11:26:03.699Z,4.5
2019-03-03T11:27:03.728Z,4.4
2019-03-03T11:28:03.745Z,4.4
2019-03-03T11:29:03.788Z,4.6
2019-03-03T11:30:03.815Z,4.5
2019-03-03T11:31:04.029Z,4.8
2019-03-03T11:32:03.848Z,4.7
2019-03-03T11:33:03.840Z,4.7
2019-03-03T11:34:03.855Z,4.8
2019-03-03T11:35:04.202Z,4.6
2019-03-03T11:36:03.877Z,4.6
2019-03-03T11:37:03.885Z,4.7
2019-03-03T11:38:03.902Z,4.8
2019-03-03T11:39:04.005Z,4.8
2019-03-03T11:40:03.969Z,4.8
2019-03-03T11:41:03.973Z,4.6
2019-03-03T11:42:04.265Z,4.9
2019-03-03T11:43:04.385Z,4.8
2019-03-03T11:44:04.336Z,4.5
2019-03-03T11:45:04.338Z,4.5
2019-03-03T11:46:04.267Z,4.4
2019-03-03T11:47:04.325Z,4.6
2019-03-03T11:48:04.691Z,4.5
2019-03-03T11:49:06.366Z,4.6
2019-03-03T11:50:04.050Z,4.4
2019-03-03T11:51:04.096Z,4.7
2019-03-03T11:52:04.111Z,4.7
2019-03-03T11:53:04.187Z,4.8
2019-03-03T11:54:04.166Z,4.9
2019-03-03T11:55:36.637Z,4.6
2019-03-03T11:56:04.141Z,4.6
2019-03-03T11:57:04.166Z,4.9
2019-03-03T11:58:04.153Z,4.8
2019-03-03T11:59:04.187Z,5
2019-03-03T12:00:04.167Z,5.1
2019-03-03T12:01:04.182Z,5.1
2019-03-03T12:02:04.198Z,4.8
2019-03-03T12:03:04.272Z,4.7
2019-03-03T12:04:04.177Z,4.7
2019-03-03T12:05:04.165Z,5
2019-03-03T12:06:04.156Z,5.2
2019-03-03T12:07:06.673Z,5
2019-03-03T12:08:04.238Z,5
2019-03-03T12:09:04.183Z,5.1
2019-03-03T12:10:04.185Z,5.3
2019-03-03T12:11:04.224Z,5.2
2019-03-03T12:12:04.220Z,5
2019-03-03T12:13:04.224Z,5.1
2019-03-03T12:14:04.234Z,5
2019-03-03T12:15:04.243Z,5.2
2019-03-03T12:16:04.245Z,5.1
2019-03-03T12:17:04.212Z,5.2
2019-03-03T12:18:04.329Z,4.9
2019-03-03T12:19:04.577Z,4.9
2019-03-03T12:20:04.589Z,4.7
2019-03-03T12:21:04.620Z,4.8
2019-03-03T12:22:04.646Z,4.5
2019-03-03T12:23:04.524Z,4.8
2019-03-03T12:24:04.295Z,4.7
2019-03-03T12:25:04.321Z,4.7
2019-03-03T12:26:04.303Z,4.7
2019-03-03T12:27:06.934Z,4.7
2019-03-03T12:28:04.327Z,4.7
2019-03-03T12:29:04.315Z,4.7
2019-03-03T12:30:04.327Z,4.6
2019-03-03T12:31:04.359Z,4.5
2019-03-03T12:32:04.330Z,4.7
2019-03-03T12:33:04.348Z,4.6
2019-03-03T12:34:04.319Z,4.7
2019-03-03T12:35:04.364Z,4.7
2019-03-03T12:36:05.018Z,4.8
2019-03-03T12:37:04.341Z,4.7
2019-03-03T12:38:04.365Z,4.9
2019-03-03T12:39:04.384Z,4.9
2019-03-03T12:40:04.396Z,4.9
2019-03-03T12:41:04.395Z,4.9
2019-03-03T12:42:04.372Z,4.9
2019-03-03T12:43:04.409Z,4.8
2019-03-03T12:44:04.392Z,4.7
2019-03-03T12:45:04.418Z,5
2019-03-03T12:46:04.461Z,4.6
2019-03-03T12:47:04.459Z,4.6
2019-03-03T12:48:04.466Z,4.7
2019-03-03T12:49:04.498Z,4.7
2019-03-03T12:50:04.550Z,4.8
2019-03-03T12:51:04.535Z,4.9
2019-03-03T12:52:06.833Z,4.7
2019-03-03T12:53:04.620Z,5
2019-03-03T12:54:04.585Z,4.9
2019-03-03T12:55:04.601Z,5.1
2019-03-03T12:56:04.653Z,4.9
2019-03-03T12:57:04.620Z,5.3
2019-03-03T12:58:04.611Z,4.8
2019-03-03T12:59:04.715Z,4.8
2019-03-03T13:00:04.669Z,4.9
2019-03-03T13:01:04.660Z,4.7
2019-03-03T13:02:04.704Z,4.7
2019-03-03T13:03:04.713Z,5
2019-03-03T13:04:04.704Z,4.8
2019-03-03T13:05:04.699Z,4.9
2019-03-03T13:06:04.708Z,5.1
2019-03-03T13:07:04.759Z,5
2019-03-03T13:08:04.722Z,5.5
2019-03-03T13:09:04.731Z,5.3
2019-03-03T13:10:04.719Z,5.1
2019-03-03T13:11:04.777Z,5.1
2019-03-03T13:12:04.765Z,4.7
2019-03-03T13:13:04.746Z,4.9
2019-03-03T13:14:04.755Z,5.2
2019-03-03T13:15:04.810Z,5.2
2019-03-03T13:16:04.769Z,4.9
2019-03-03T13:17:04.791Z,5.1
2019-03-03T13:18:04.808Z,5
2019-03-03T13:19:04.836Z,5
2019-03-03T13:20:04.774Z,4.8
2019-03-03T13:21:04.775Z,5
2019-03-03T13:22:04.794Z,4.9
2019-03-03T13:23:04.843Z,4.8
2019-03-03T13:24:04.897Z,4.9
2019-03-03T13:25:04.897Z,5.1
2019-03-03T13:26:04.914Z,5.1
2019-03-03T13:27:04.967Z,4.9
2019-03-03T13:28:05.119Z,5
2019-03-03T13:29:05.028Z,4.9
2019-03-03T13:30:05.095Z,5
2019-03-03T13:31:05.156Z,4.9
2019-03-03T13:32:05.132Z,4.8
2019-03-03T13:33:05.186Z,4.7
2019-03-03T13:34:05.177Z,4.8
2019-03-03T13:35:05.215Z,4.8
2019-03-03T13:36:05.258Z,4.8
2019-03-03T13:37:05.315Z,4.7
2019-03-03T13:38:05.351Z,4.6
2019-03-03T13:39:05.389Z,4.6
2019-03-03T13:40:05.406Z,4.5
2019-03-03T13:41:05.406Z,4.6
2019-03-03T13:42:05.478Z,5
2019-03-03T13:43:05.446Z,4.7
2019-03-03T13:44:05.470Z,4.5
2019-03-03T13:45:05.515Z,4.6
2019-03-03T13:46:05.521Z,4.7
2019-03-03T13:47:05.547Z,4.7
2019-03-03T13:48:05.589Z,4.6
2019-03-03T13:49:05.572Z,4.6
2019-03-03T13:50:05.596Z,4.6
2019-03-03T13:51:05.624Z,4.7
2019-03-03T13:52:05.659Z,4.6
2019-03-03T13:53:05.636Z,4.9